Terminal Aerodrome Forecast
Issued by NWS

Home | Current Version | Previous Version | Text Only | Print | Product List | Glossary On
Versions: 1 2 3 4 5 6 7 8 9 10 11 12 13 14
000
FTUS42 TJSJ 311100
TAFJSJ
TAF
TJSJ 311133Z 3112/0112 VRB03KT P6SM VCSH FEW025 SCT060
      TEMPO 3112/3114 5SM SHRA SCT025 BKN040
     FM311430 07012KT P6SM SCT030 SCT050
     FM312230 10005KT P6SM SCT025=

USA.gov is the U.S. government's official web portal to all federal, state and local government web resources and services.